sensor_id;sensor_type;location;lat;lon;timestamp;P1;durP1;ratioP1;P2;durP2;ratioP2
58360;SDS011;44164;44.954;10.068;2023-03-13T00:00:25;3.70;;;1.25;;
58360;SDS011;44164;44.954;10.068;2023-03-13T00:02:51;2.35;;;1.27;;
58360;SDS011;44164;44.954;10.068;2023-03-13T00:05:18;3.00;;;1.15;;
58360;SDS011;44164;44.954;10.068;2023-03-13T00:07:44;3.45;;;1.63;;
58360;SDS011;44164;44.954;10.068;2023-03-13T00:10:10;2.38;;;1.13;;
58360;SDS011;44164;44.954;10.068;2023-03-13T00:12:36;3.63;;;1.30;;
58360;SDS011;44164;44.954;10.068;2023-03-13T00:15:02;2.55;;;1.00;;
58360;SDS011;44164;44.954;10.068;2023-03-13T00:17:28;3.80;;;1.50;;
58360;SDS011;44164;44.954;10.068;2023-03-13T00:19:55;5.35;;;1.80;;
58360;SDS011;44164;44.954;10.068;2023-03-13T00:22:21;2.90;;;1.30;;
58360;SDS011;44164;44.954;10.068;2023-03-13T00:24:47;4.18;;;1.45;;
58360;SDS011;44164;44.954;10.068;2023-03-13T00:27:13;2.03;;;1.00;;
58360;SDS011;44164;44.954;10.068;2023-03-13T00:29:39;2.15;;;1.20;;
58360;SDS011;44164;44.954;10.068;2023-03-13T00:32:05;1.92;;;1.10;;
58360;SDS011;44164;44.954;10.068;2023-03-13T00:34:32;3.70;;;1.67;;
58360;SDS011;44164;44.954;10.068;2023-03-13T00:36:58;2.95;;;1.35;;
58360;SDS011;44164;44.954;10.068;2023-03-13T00:39:24;3.17;;;1.40;;
58360;SDS011;44164;44.954;10.068;2023-03-13T00:41:50;2.25;;;1.20;;
58360;SDS011;44164;44.954;10.068;2023-03-13T00:44:17;3.05;;;1.33;;
58360;SDS011;44164;44.954;10.068;2023-03-13T00:46:43;2.55;;;1.60;;
58360;SDS011;44164;44.954;10.068;2023-03-13T00:49:09;2.67;;;1.13;;
58360;SDS011;44164;44.954;10.068;2023-03-13T00:51:35;2.60;;;1.40;;
58360;SDS011;44164;44.954;10.068;2023-03-13T00:54:01;3.55;;;1.65;;
58360;SDS011;44164;44.954;10.068;2023-03-13T00:56:29;3.92;;;1.55;;
58360;SDS011;44164;44.954;10.068;2023-03-13T00:58:55;2.88;;;1.02;;
58360;SDS011;44164;44.954;10.068;2023-03-13T01:01:26;3.08;;;1.42;;
58360;SDS011;44164;44.954;10.068;2023-03-13T01:03:57;2.70;;;1.33;;
58360;SDS011;44164;44.954;10.068;2023-03-13T01:06:26;2.25;;;1.15;;
58360;SDS011;44164;44.954;10.068;2023-03-13T01:08:56;1.92;;;0.90;;
58360;SDS011;44164;44.954;10.068;2023-03-13T01:11:25;3.53;;;1.48;;
58360;SDS011;44164;44.954;10.068;2023-03-13T01:13:53;2.55;;;1.40;;
58360;SDS011;44164;44.954;10.068;2023-03-13T01:16:21;3.75;;;1.33;;
58360;SDS011;44164;44.954;10.068;2023-03-13T01:18:49;2.15;;;1.10;;
58360;SDS011;44164;44.954;10.068;2023-03-13T01:21:18;4.78;;;1.33;;
58360;SDS011;44164;44.954;10.068;2023-03-13T01:23:45;2.72;;;1.13;;
58360;SDS011;44164;44.954;10.068;2023-03-13T01:26:11;2.63;;;1.13;;
58360;SDS011;44164;44.954;10.068;2023-03-13T01:28:38;2.60;;;1.33;;
58360;SDS011;44164;44.954;10.068;2023-03-13T01:31:11;4.00;;;1.63;;
58360;SDS011;44164;44.954;10.068;2023-03-13T01:33:43;2.08;;;1.10;;
58360;SDS011;44164;44.954;10.068;2023-03-13T01:36:10;2.03;;;1.30;;
58360;SDS011;44164;44.954;10.068;2023-03-13T01:38:37;2.15;;;1.13;;
58360;SDS011;44164;44.954;10.068;2023-03-13T01:41:04;2.15;;;1.10;;
58360;SDS011;44164;44.954;10.068;2023-03-13T01:43:32;2.40;;;1.27;;
58360;SDS011;44164;44.954;10.068;2023-03-13T01:53:39;3.50;;;1.40;;
58360;SDS011;44164;44.954;10.068;2023-03-13T01:56:07;4.60;;;1.70;;
58360;SDS011;44164;44.954;10.068;2023-03-13T01:58:37;2.42;;;1.33;;
58360;SDS011;44164;44.954;10.068;2023-03-13T02:01:03;3.13;;;1.20;;
58360;SDS011;44164;44.954;10.068;2023-03-13T02:03:30;3.20;;;1.40;;
58360;SDS011;44164;44.954;10.068;2023-03-13T02:08:35;2.72;;;1.40;;
58360;SDS011;44164;44.954;10.068;2023-03-13T02:11:06;2.63;;;1.30;;
58360;SDS011;44164;44.954;10.068;2023-03-13T02:13:39;2.63;;;1.20;;
58360;SDS011;44164;44.954;10.068;2023-03-13T02:16:06;3.67;;;1.30;;
58360;SDS011;44164;44.954;10.068;2023-03-13T02:18:32;2.10;;;1.27;;
58360;SDS011;44164;44.954;10.068;2023-03-13T02:21:01;2.85;;;1.55;;
58360;SDS011;44164;44.954;10.068;2023-03-13T02:23:38;3.20;;;1.38;;
58360;SDS011;44164;44.954;10.068;2023-03-13T02:26:09;3.20;;;1.10;;
58360;SDS011;44164;44.954;10.068;2023-03-13T02:28:38;2.97;;;1.08;;
58360;SDS011;44164;44.954;10.068;2023-03-13T02:31:08;2.88;;;1.20;;
58360;SDS011;44164;44.954;10.068;2023-03-13T02:33:36;2.90;;;1.25;;
58360;SDS011;44164;44.954;10.068;2023-03-13T02:36:04;2.75;;;1.15;;
58360;SDS011;44164;44.954;10.068;2023-03-13T02:38:33;2.25;;;1.00;;
58360;SDS011;44164;44.954;10.068;2023-03-13T02:41:02;2.50;;;1.33;;
58360;SDS011;44164;44.954;10.068;2023-03-13T02:43:31;2.78;;;1.48;;
58360;SDS011;44164;44.954;10.068;2023-03-13T02:48:38;2.08;;;1.15;;
58360;SDS011;44164;44.954;10.068;2023-03-13T02:51:13;1.77;;;1.00;;
58360;SDS011;44164;44.954;10.068;2023-03-13T02:53:54;2.38;;;1.55;;
58360;SDS011;44164;44.954;10.068;2023-03-13T02:56:23;1.90;;;1.15;;
58360;SDS011;44164;44.954;10.068;2023-03-13T02:58:52;2.13;;;1.15;;
58360;SDS011;44164;44.954;10.068;2023-03-13T03:01:22;3.88;;;1.45;;
58360;SDS011;44164;44.954;10.068;2023-03-13T03:03:48;2.67;;;1.30;;
58360;SDS011;44164;44.954;10.068;2023-03-13T03:06:14;2.72;;;1.13;;
58360;SDS011;44164;44.954;10.068;2023-03-13T03:08:41;2.17;;;1.17;;
58360;SDS011;44164;44.954;10.068;2023-03-13T03:11:10;1.75;;;1.00;;
58360;SDS011;44164;44.954;10.068;2023-03-13T03:13:36;2.65;;;1.02;;
58360;SDS011;44164;44.954;10.068;2023-03-13T03:16:10;2.63;;;1.52;;
58360;SDS011;44164;44.954;10.068;2023-03-13T03:18:38;2.67;;;1.30;;
58360;SDS011;44164;44.954;10.068;2023-03-13T03:21:04;2.63;;;1.17;;
58360;SDS011;44164;44.954;10.068;2023-03-13T03:23:35;3.15;;;1.10;;
58360;SDS011;44164;44.954;10.068;2023-03-13T03:26:03;2.03;;;1.27;;
58360;SDS011;44164;44.954;10.068;2023-03-13T03:28:31;3.92;;;1.40;;
58360;SDS011;44164;44.954;10.068;2023-03-13T03:31:06;3.17;;;1.65;;
58360;SDS011;44164;44.954;10.068;2023-03-13T03:33:34;2.22;;;1.10;;
58360;SDS011;44164;44.954;10.068;2023-03-13T03:36:06;1.95;;;1.25;;
58360;SDS011;44164;44.954;10.068;2023-03-13T03:38:34;2.88;;;1.23;;
58360;SDS011;44164;44.954;10.068;2023-03-13T03:41:00;2.03;;;1.30;;
58360;SDS011;44164;44.954;10.068;2023-03-13T03:43:27;4.05;;;1.60;;
58360;SDS011;44164;44.954;10.068;2023-03-13T03:45:54;2.30;;;1.35;;
58360;SDS011;44164;44.954;10.068;2023-03-13T03:50:48;3.60;;;1.70;;
58360;SDS011;44164;44.954;10.068;2023-03-13T03:53:16;1.95;;;1.08;;
58360;SDS011;44164;44.954;10.068;2023-03-13T03:55:43;3.33;;;1.30;;
58360;SDS011;44164;44.954;10.068;2023-03-13T03:58:09;1.88;;;1.02;;
58360;SDS011;44164;44.954;10.068;2023-03-13T04:00:55;2.47;;;1.25;;
58360;SDS011;44164;44.954;10.068;2023-03-13T04:03:22;4.53;;;1.20;;
58360;SDS011;44164;44.954;10.068;2023-03-13T04:05:48;2.22;;;1.10;;
58360;SDS011;44164;44.954;10.068;2023-03-13T04:08:15;2.92;;;1.30;;
58360;SDS011;44164;44.954;10.068;2023-03-13T04:10:41;3.70;;;1.30;;
58360;SDS011;44164;44.954;10.068;2023-03-13T04:13:07;2.15;;;1.00;;
58360;SDS011;44164;44.954;10.068;2023-03-13T04:15:34;2.35;;;1.20;;
58360;SDS011;44164;44.954;10.068;2023-03-13T04:18:01;2.17;;;1.17;;
58360;SDS011;44164;44.954;10.068;2023-03-13T04:20:27;2.65;;;1.13;;
58360;SDS011;44164;44.954;10.068;2023-03-13T04:22:54;2.20;;;1.02;;
58360;SDS011;44164;44.954;10.068;2023-03-13T04:25:21;1.90;;;0.95;;
58360;SDS011;44164;44.954;10.068;2023-03-13T04:27:50;2.55;;;1.30;;
58360;SDS011;44164;44.954;10.068;2023-03-13T04:30:19;2.75;;;1.02;;
58360;SDS011;44164;44.954;10.068;2023-03-13T04:33:11;2.35;;;1.20;;
58360;SDS011;44164;44.954;10.068;2023-03-13T04:35:54;2.53;;;1.10;;
58360;SDS011;44164;44.954;10.068;2023-03-13T04:38:41;3.00;;;1.00;;
58360;SDS011;44164;44.954;10.068;2023-03-13T04:41:16;1.73;;;1.10;;
58360;SDS011;44164;44.954;10.068;2023-03-13T04:43:59;2.35;;;1.30;;
58360;SDS011;44164;44.954;10.068;2023-03-13T04:46:51;2.13;;;1.10;;
58360;SDS011;44164;44.954;10.068;2023-03-13T04:49:38;2.42;;;1.27;;
58360;SDS011;44164;44.954;10.068;2023-03-13T04:52:12;2.92;;;1.58;;
58360;SDS011;44164;44.954;10.068;2023-03-13T04:55:05;2.80;;;1.05;;
58360;SDS011;44164;44.954;10.068;2023-03-13T04:57:50;2.28;;;1.00;;
58360;SDS011;44164;44.954;10.068;2023-03-13T05:00:35;2.10;;;1.23;;
58360;SDS011;44164;44.954;10.068;2023-03-13T05:03:26;2.95;;;1.20;;
58360;SDS011;44164;44.954;10.068;2023-03-13T05:06:13;1.83;;;1.02;;
58360;SDS011;44164;44.954;10.068;2023-03-13T05:08:57;2.83;;;1.35;;
58360;SDS011;44164;44.954;10.068;2023-03-13T05:11:32;2.33;;;1.10;;
58360;SDS011;44164;44.954;10.068;2023-03-13T05:14:28;2.65;;;1.30;;
58360;SDS011;44164;44.954;10.068;2023-03-13T05:17:12;2.78;;;1.23;;
58360;SDS011;44164;44.954;10.068;2023-03-13T05:20:08;1.88;;;1.05;;
58360;SDS011;44164;44.954;10.068;2023-03-13T05:22:44;2.50;;;1.20;;
58360;SDS011;44164;44.954;10.068;2023-03-13T05:25:13;1.90;;;1.17;;
58360;SDS011;44164;44.954;10.068;2023-03-13T05:27:57;3.33;;;1.20;;
58360;SDS011;44164;44.954;10.068;2023-03-13T05:30:42;2.50;;;1.27;;
58360;SDS011;44164;44.954;10.068;2023-03-13T05:33:28;2.88;;;1.40;;
58360;SDS011;44164;44.954;10.068;2023-03-13T05:36:33;2.67;;;1.40;;
58360;SDS011;44164;44.954;10.068;2023-03-13T05:39:19;2.17;;;1.15;;
58360;SDS011;44164;44.954;10.068;2023-03-13T05:42:04;2.42;;;1.33;;
58360;SDS011;44164;44.954;10.068;2023-03-13T05:44:42;2.42;;;1.20;;
58360;SDS011;44164;44.954;10.068;2023-03-13T05:47:27;1.90;;;1.15;;
58360;SDS011;44164;44.954;10.068;2023-03-13T05:50:21;2.95;;;1.30;;
58360;SDS011;44164;44.954;10.068;2023-03-13T05:53:05;2.25;;;1.20;;
58360;SDS011;44164;44.954;10.068;2023-03-13T05:55:54;2.67;;;1.35;;
58360;SDS011;44164;44.954;10.068;2023-03-13T05:58:55;3.72;;;1.70;;
58360;SDS011;44164;44.954;10.068;2023-03-13T06:01:54;3.97;;;1.20;;
58360;SDS011;44164;44.954;10.068;2023-03-13T06:04:29;2.38;;;1.20;;
58360;SDS011;44164;44.954;10.068;2023-03-13T06:06:55;2.92;;;1.27;;
58360;SDS011;44164;44.954;10.068;2023-03-13T06:09:22;2.17;;;1.40;;
58360;SDS011;44164;44.954;10.068;2023-03-13T06:11:49;2.63;;;1.30;;
58360;SDS011;44164;44.954;10.068;2023-03-13T06:14:17;2.50;;;1.30;;
58360;SDS011;44164;44.954;10.068;2023-03-13T06:16:54;3.28;;;1.30;;
58360;SDS011;44164;44.954;10.068;2023-03-13T06:19:22;2.83;;;1.23;;
58360;SDS011;44164;44.954;10.068;2023-03-13T06:21:49;3.08;;;1.52;;
58360;SDS011;44164;44.954;10.068;2023-03-13T06:24:16;3.45;;;1.45;;
58360;SDS011;44164;44.954;10.068;2023-03-13T06:26:47;2.00;;;1.30;;
58360;SDS011;44164;44.954;10.068;2023-03-13T06:29:14;3.05;;;1.60;;
58360;SDS011;44164;44.954;10.068;2023-03-13T06:31:41;2.53;;;1.05;;
58360;SDS011;44164;44.954;10.068;2023-03-13T06:34:11;1.95;;;1.15;;
58360;SDS011;44164;44.954;10.068;2023-03-13T06:36:38;2.13;;;1.25;;
58360;SDS011;44164;44.954;10.068;2023-03-13T06:39:04;1.90;;;1.15;;
58360;SDS011;44164;44.954;10.068;2023-03-13T06:41:30;2.35;;;1.30;;
58360;SDS011;44164;44.954;10.068;2023-03-13T06:43:57;2.30;;;1.48;;
58360;SDS011;44164;44.954;10.068;2023-03-13T06:46:24;1.70;;;1.25;;
58360;SDS011;44164;44.954;10.068;2023-03-13T06:48:50;2.50;;;1.38;;
58360;SDS011;44164;44.954;10.068;2023-03-13T06:51:17;2.67;;;1.48;;
58360;SDS011;44164;44.954;10.068;2023-03-13T06:56:11;5.35;;;1.58;;
58360;SDS011;44164;44.954;10.068;2023-03-13T06:58:37;4.40;;;1.60;;
58360;SDS011;44164;44.954;10.068;2023-03-13T07:01:06;3.92;;;1.33;;
58360;SDS011;44164;44.954;10.068;2023-03-13T07:03:34;4.47;;;1.73;;
58360;SDS011;44164;44.954;10.068;2023-03-13T07:06:00;3.22;;;1.60;;
58360;SDS011;44164;44.954;10.068;2023-03-13T07:08:27;8.65;;;1.80;;
58360;SDS011;44164;44.954;10.068;2023-03-13T07:10:56;6.95;;;2.15;;
58360;SDS011;44164;44.954;10.068;2023-03-13T07:13:23;4.28;;;1.98;;
58360;SDS011;44164;44.954;10.068;2023-03-13T07:15:50;3.13;;;1.65;;
58360;SDS011;44164;44.954;10.068;2023-03-13T07:18:16;6.30;;;1.83;;
58360;SDS011;44164;44.954;10.068;2023-03-13T07:20:42;7.68;;;2.38;;
58360;SDS011;44164;44.954;10.068;2023-03-13T07:23:08;3.58;;;1.70;;
58360;SDS011;44164;44.954;10.068;2023-03-13T07:25:34;5.35;;;1.85;;
58360;SDS011;44164;44.954;10.068;2023-03-13T07:28:00;5.47;;;2.03;;
58360;SDS011;44164;44.954;10.068;2023-03-13T07:30:27;5.78;;;2.03;;
58360;SDS011;44164;44.954;10.068;2023-03-13T07:32:53;6.53;;;2.13;;
58360;SDS011;44164;44.954;10.068;2023-03-13T07:35:19;4.72;;;2.20;;
58360;SDS011;44164;44.954;10.068;2023-03-13T07:37:47;7.18;;;3.15;;
58360;SDS011;44164;44.954;10.068;2023-03-13T07:40:13;6.45;;;2.67;;
58360;SDS011;44164;44.954;10.068;2023-03-13T07:42:40;4.97;;;2.10;;
58360;SDS011;44164;44.954;10.068;2023-03-13T07:45:07;6.03;;;2.35;;
58360;SDS011;44164;44.954;10.068;2023-03-13T07:47:34;3.67;;;2.30;;
58360;SDS011;44164;44.954;10.068;2023-03-13T07:50:00;5.00;;;2.22;;
58360;SDS011;44164;44.954;10.068;2023-03-13T07:52:27;4.57;;;2.20;;
58360;SDS011;44164;44.954;10.068;2023-03-13T07:54:53;3.80;;;2.33;;
58360;SDS011;44164;44.954;10.068;2023-03-13T07:57:19;12.60;;;2.80;;
58360;SDS011;44164;44.954;10.068;2023-03-13T07:59:45;4.85;;;2.15;;
58360;SDS011;44164;44.954;10.068;2023-03-13T08:02:12;5.25;;;2.50;;
58360;SDS011;44164;44.954;10.068;2023-03-13T08:04:41;7.35;;;1.83;;
58360;SDS011;44164;44.954;10.068;2023-03-13T08:07:08;7.53;;;2.53;;
58360;SDS011;44164;44.954;10.068;2023-03-13T08:09:35;4.07;;;2.25;;
58360;SDS011;44164;44.954;10.068;2023-03-13T08:12:01;3.15;;;1.98;;
58360;SDS011;44164;44.954;10.068;2023-03-13T08:14:27;3.58;;;1.70;;
58360;SDS011;44164;44.954;10.068;2023-03-13T08:16:53;3.00;;;2.05;;
58360;SDS011;44164;44.954;10.068;2023-03-13T08:19:19;4.90;;;1.83;;
58360;SDS011;44164;44.954;10.068;2023-03-13T08:21:46;7.25;;;1.90;;
58360;SDS011;44164;44.954;10.068;2023-03-13T08:24:12;7.35;;;1.92;;
58360;SDS011;44164;44.954;10.068;2023-03-13T08:26:39;5.63;;;2.50;;
58360;SDS011;44164;44.954;10.068;2023-03-13T08:29:10;6.55;;;1.98;;
58360;SDS011;44164;44.954;10.068;2023-03-13T08:31:44;5.68;;;2.45;;
58360;SDS011;44164;44.954;10.068;2023-03-13T08:34:13;2.90;;;1.45;;
58360;SDS011;44164;44.954;10.068;2023-03-13T08:36:40;4.43;;;2.05;;
58360;SDS011;44164;44.954;10.068;2023-03-13T08:39:08;6.05;;;2.08;;
58360;SDS011;44164;44.954;10.068;2023-03-13T08:41:37;7.05;;;2.10;;
58360;SDS011;44164;44.954;10.068;2023-03-13T08:44:05;3.72;;;1.90;;
58360;SDS011;44164;44.954;10.068;2023-03-13T08:46:33;6.27;;;2.20;;
58360;SDS011;44164;44.954;10.068;2023-03-13T08:49:00;4.25;;;1.80;;
58360;SDS011;44164;44.954;10.068;2023-03-13T08:51:27;4.57;;;1.50;;
58360;SDS011;44164;44.954;10.068;2023-03-13T08:53:54;4.15;;;1.88;;
58360;SDS011;44164;44.954;10.068;2023-03-13T08:56:21;2.95;;;1.60;;
58360;SDS011;44164;44.954;10.068;2023-03-13T08:58:55;6.07;;;1.90;;
58360;SDS011;44164;44.954;10.068;2023-03-13T09:01:23;3.80;;;1.70;;
58360;SDS011;44164;44.954;10.068;2023-03-13T09:03:50;7.25;;;2.17;;
58360;SDS011;44164;44.954;10.068;2023-03-13T09:06:17;3.53;;;1.50;;
58360;SDS011;44164;44.954;10.068;2023-03-13T09:08:43;5.93;;;2.03;;
58360;SDS011;44164;44.954;10.068;2023-03-13T09:11:10;2.95;;;1.85;;
58360;SDS011;44164;44.954;10.068;2023-03-13T09:13:42;3.85;;;1.52;;
58360;SDS011;44164;44.954;10.068;2023-03-13T09:16:11;3.58;;;1.67;;
58360;SDS011;44164;44.954;10.068;2023-03-13T09:18:39;2.55;;;1.42;;
58360;SDS011;44164;44.954;10.068;2023-03-13T09:21:09;3.75;;;1.60;;
58360;SDS011;44164;44.954;10.068;2023-03-13T09:23:38;4.18;;;1.60;;
58360;SDS011;44164;44.954;10.068;2023-03-13T09:26:04;2.70;;;1.42;;
58360;SDS011;44164;44.954;10.068;2023-03-13T09:28:30;3.40;;;1.58;;
58360;SDS011;44164;44.954;10.068;2023-03-13T09:31:05;2.53;;;1.40;;
58360;SDS011;44164;44.954;10.068;2023-03-13T09:33:32;4.10;;;1.83;;
58360;SDS011;44164;44.954;10.068;2023-03-13T09:35:58;2.70;;;1.50;;
58360;SDS011;44164;44.954;10.068;2023-03-13T09:38:24;4.05;;;1.42;;
58360;SDS011;44164;44.954;10.068;2023-03-13T09:40:51;2.70;;;1.65;;
58360;SDS011;44164;44.954;10.068;2023-03-13T09:43:33;1.92;;;1.27;;
58360;SDS011;44164;44.954;10.068;2023-03-13T09:52:09;3.15;;;1.70;;
58360;SDS011;44164;44.954;10.068;2023-03-13T09:54:44;3.28;;;1.80;;
58360;SDS011;44164;44.954;10.068;2023-03-13T09:57:22;4.05;;;1.40;;
58360;SDS011;44164;44.954;10.068;2023-03-13T10:00:04;3.33;;;1.30;;
58360;SDS011;44164;44.954;10.068;2023-03-13T10:02:37;3.17;;;1.65;;
58360;SDS011;44164;44.954;10.068;2023-03-13T10:05:46;3.65;;;1.80;;
58360;SDS011;44164;44.954;10.068;2023-03-13T10:08:04;3.15;;;1.48;;
58360;SDS011;44164;44.954;10.068;2023-03-13T10:11:06;4.05;;;1.92;;
58360;SDS011;44164;44.954;10.068;2023-03-13T10:16:28;3.20;;;1.55;;
58360;SDS011;44164;44.954;10.068;2023-03-13T10:18:57;2.63;;;1.35;;
58360;SDS011;44164;44.954;10.068;2023-03-13T10:21:33;3.00;;;1.63;;
58360;SDS011;44164;44.954;10.068;2023-03-13T10:26:48;3.20;;;1.63;;
58360;SDS011;44164;44.954;10.068;2023-03-13T10:29:25;3.17;;;1.38;;
58360;SDS011;44164;44.954;10.068;2023-03-13T10:31:57;2.67;;;1.50;;
58360;SDS011;44164;44.954;10.068;2023-03-13T10:34:28;4.10;;;1.98;;
58360;SDS011;44164;44.954;10.068;2023-03-13T10:36:57;4.20;;;1.60;;
58360;SDS011;44164;44.954;10.068;2023-03-13T10:39:25;2.92;;;1.52;;
58360;SDS011;44164;44.954;10.068;2023-03-13T10:41:57;3.22;;;1.35;;
58360;SDS011;44164;44.954;10.068;2023-03-13T10:44:35;3.10;;;1.27;;
58360;SDS011;44164;44.954;10.068;2023-03-13T10:47:02;2.58;;;1.25;;
58360;SDS011;44164;44.954;10.068;2023-03-13T10:49:30;2.25;;;1.30;;
58360;SDS011;44164;44.954;10.068;2023-03-13T10:52:01;2.30;;;1.33;;
58360;SDS011;44164;44.954;10.068;2023-03-13T10:54:30;2.45;;;1.38;;
58360;SDS011;44164;44.954;10.068;2023-03-13T10:57:18;2.25;;;1.20;;
58360;SDS011;44164;44.954;10.068;2023-03-13T10:59:51;2.78;;;1.50;;
58360;SDS011;44164;44.954;10.068;2023-03-13T11:02:22;3.50;;;1.63;;
58360;SDS011;44164;44.954;10.068;2023-03-13T11:04:53;2.85;;;1.15;;
58360;SDS011;44164;44.954;10.068;2023-03-13T11:07:33;2.55;;;1.30;;
58360;SDS011;44164;44.954;10.068;2023-03-13T11:10:03;2.55;;;1.30;;
58360;SDS011;44164;44.954;10.068;2023-03-13T11:12:35;4.45;;;1.50;;
58360;SDS011;44164;44.954;10.068;2023-03-13T11:15:14;3.70;;;1.40;;
58360;SDS011;44164;44.954;10.068;2023-03-13T11:17:42;5.78;;;1.25;;
58360;SDS011;44164;44.954;10.068;2023-03-13T11:20:18;2.60;;;1.33;;
58360;SDS011;44164;44.954;10.068;2023-03-13T11:22:50;3.22;;;1.30;;
58360;SDS011;44164;44.954;10.068;2023-03-13T11:31:24;2.90;;;1.30;;
58360;SDS011;44164;44.954;10.068;2023-03-13T11:34:05;3.42;;;1.40;;
58360;SDS011;44164;44.954;10.068;2023-03-13T11:36:50;6.53;;;1.60;;
58360;SDS011;44164;44.954;10.068;2023-03-13T11:51:08;2.20;;;1.13;;
58360;SDS011;44164;44.954;10.068;2023-03-13T12:02:24;2.22;;;1.05;;
58360;SDS011;44164;44.954;10.068;2023-03-13T12:05:00;2.03;;;1.17;;
58360;SDS011;44164;44.954;10.068;2023-03-13T12:07:46;3.42;;;1.27;;
58360;SDS011;44164;44.954;10.068;2023-03-13T12:13:13;5.32;;;1.80;;
58360;SDS011;44164;44.954;10.068;2023-03-13T12:15:46;2.25;;;1.38;;
58360;SDS011;44164;44.954;10.068;2023-03-13T12:18:20;8.25;;;2.13;;
58360;SDS011;44164;44.954;10.068;2023-03-13T12:23:39;4.75;;;1.48;;
58360;SDS011;44164;44.954;10.068;2023-03-13T12:26:13;4.63;;;1.60;;
58360;SDS011;44164;44.954;10.068;2023-03-13T12:31:27;3.38;;;1.52;;
58360;SDS011;44164;44.954;10.068;2023-03-13T12:34:14;5.55;;;1.35;;
58360;SDS011;44164;44.954;10.068;2023-03-13T12:36:47;3.00;;;1.48;;
58360;SDS011;44164;44.954;10.068;2023-03-13T12:39:30;3.75;;;1.83;;
58360;SDS011;44164;44.954;10.068;2023-03-13T12:45:03;4.35;;;1.88;;
58360;SDS011;44164;44.954;10.068;2023-03-13T12:58:22;3.42;;;1.25;;
58360;SDS011;44164;44.954;10.068;2023-03-13T13:00:53;7.15;;;1.60;;
58360;SDS011;44164;44.954;10.068;2023-03-13T13:06:02;5.10;;;1.73;;
58360;SDS011;44164;44.954;10.068;2023-03-13T13:08:32;5.72;;;1.65;;
58360;SDS011;44164;44.954;10.068;2023-03-13T13:14:03;3.50;;;1.33;;
58360;SDS011;44164;44.954;10.068;2023-03-13T13:16:30;8.05;;;1.67;;
58360;SDS011;44164;44.954;10.068;2023-03-13T13:19:20;5.28;;;1.40;;
58360;SDS011;44164;44.954;10.068;2023-03-13T13:24:56;3.88;;;1.80;;
58360;SDS011;44164;44.954;10.068;2023-03-13T13:33:49;7.20;;;1.75;;
58360;SDS011;44164;44.954;10.068;2023-03-13T13:35:45;6.13;;;2.00;;
58360;SDS011;44164;44.954;10.068;2023-03-13T13:41:01;2.90;;;1.67;;
58360;SDS011;44164;44.954;10.068;2023-03-13T13:51:31;5.32;;;1.63;;
58360;SDS011;44164;44.954;10.068;2023-03-13T13:53:59;3.63;;;1.73;;
58360;SDS011;44164;44.954;10.068;2023-03-13T14:01:25;2.83;;;1.42;;
58360;SDS011;44164;44.954;10.068;2023-03-13T14:03:52;5.30;;;1.73;;
58360;SDS011;44164;44.954;10.068;2023-03-13T14:09:00;3.08;;;1.58;;
58360;SDS011;44164;44.954;10.068;2023-03-13T14:11:36;3.70;;;1.65;;
58360;SDS011;44164;44.954;10.068;2023-03-13T14:16:46;2.72;;;1.30;;
58360;SDS011;44164;44.954;10.068;2023-03-13T14:24:31;8.73;;;2.03;;
58360;SDS011;44164;44.954;10.068;2023-03-13T14:26:58;3.72;;;1.50;;
58360;SDS011;44164;44.954;10.068;2023-03-13T14:29:24;6.97;;;1.98;;
58360;SDS011;44164;44.954;10.068;2023-03-13T14:31:53;6.25;;;1.70;;
58360;SDS011;44164;44.954;10.068;2023-03-13T14:34:23;3.42;;;1.40;;
58360;SDS011;44164;44.954;10.068;2023-03-13T14:36:54;6.05;;;1.83;;
58360;SDS011;44164;44.954;10.068;2023-03-13T14:42:04;5.07;;;1.52;;
58360;SDS011;44164;44.954;10.068;2023-03-13T14:44:34;3.70;;;1.52;;
58360;SDS011;44164;44.954;10.068;2023-03-13T14:47:05;5.75;;;1.40;;
58360;SDS011;44164;44.954;10.068;2023-03-13T14:49:33;4.47;;;1.40;;
58360;SDS011;44164;44.954;10.068;2023-03-13T14:54:59;4.03;;;1.30;;
58360;SDS011;44164;44.954;10.068;2023-03-13T14:57:29;3.08;;;1.33;;
58360;SDS011;44164;44.954;10.068;2023-03-13T15:05:45;3.60;;;1.52;;
58360;SDS011;44164;44.954;10.068;2023-03-13T15:08:28;6.60;;;1.90;;
58360;SDS011;44164;44.954;10.068;2023-03-13T15:10:55;2.35;;;1.40;;
58360;SDS011;44164;44.954;10.068;2023-03-13T15:13:31;7.10;;;1.50;;
58360;SDS011;44164;44.954;10.068;2023-03-13T15:15:59;3.13;;;1.45;;
58360;SDS011;44164;44.954;10.068;2023-03-13T15:18:27;4.32;;;1.35;;
58360;SDS011;44164;44.954;10.068;2023-03-13T15:20:58;4.82;;;1.50;;
58360;SDS011;44164;44.954;10.068;2023-03-13T15:23:53;4.20;;;1.77;;
58360;SDS011;44164;44.954;10.068;2023-03-13T15:26:27;4.55;;;1.80;;
58360;SDS011;44164;44.954;10.068;2023-03-13T15:28:53;5.25;;;1.58;;
58360;SDS011;44164;44.954;10.068;2023-03-13T15:31:22;3.90;;;1.65;;
58360;SDS011;44164;44.954;10.068;2023-03-13T15:33:53;3.85;;;1.40;;
58360;SDS011;44164;44.954;10.068;2023-03-13T15:36:22;4.05;;;1.60;;
58360;SDS011;44164;44.954;10.068;2023-03-13T15:38:48;5.28;;;2.58;;
58360;SDS011;44164;44.954;10.068;2023-03-13T15:41:16;6.45;;;1.75;;
58360;SDS011;44164;44.954;10.068;2023-03-13T15:43:44;4.43;;;1.70;;
58360;SDS011;44164;44.954;10.068;2023-03-13T15:46:13;5.05;;;1.60;;
58360;SDS011;44164;44.954;10.068;2023-03-13T15:48:39;3.47;;;1.65;;
58360;SDS011;44164;44.954;10.068;2023-03-13T15:51:11;6.15;;;1.83;;
58360;SDS011;44164;44.954;10.068;2023-03-13T15:53:39;4.22;;;1.92;;
58360;SDS011;44164;44.954;10.068;2023-03-13T15:56:16;6.05;;;1.95;;
58360;SDS011;44164;44.954;10.068;2023-03-13T15:58:44;3.10;;;1.40;;
58360;SDS011;44164;44.954;10.068;2023-03-13T16:01:12;4.68;;;1.70;;
58360;SDS011;44164;44.954;10.068;2023-03-13T16:03:39;6.35;;;1.95;;
58360;SDS011;44164;44.954;10.068;2023-03-13T16:06:16;8.70;;;1.98;;
58360;SDS011;44164;44.954;10.068;2023-03-13T16:08:45;6.22;;;2.58;;
58360;SDS011;44164;44.954;10.068;2023-03-13T16:11:12;5.50;;;1.85;;
58360;SDS011;44164;44.954;10.068;2023-03-13T16:13:39;3.67;;;1.45;;
58360;SDS011;44164;44.954;10.068;2023-03-13T16:16:25;6.97;;;1.58;;
58360;SDS011;44164;44.954;10.068;2023-03-13T16:18:54;6.13;;;1.80;;
58360;SDS011;44164;44.954;10.068;2023-03-13T16:21:22;5.77;;;1.80;;
58360;SDS011;44164;44.954;10.068;2023-03-13T16:23:53;4.82;;;1.60;;
58360;SDS011;44164;44.954;10.068;2023-03-13T16:26:21;4.90;;;1.77;;
58360;SDS011;44164;44.954;10.068;2023-03-13T16:28:48;5.32;;;1.60;;
58360;SDS011;44164;44.954;10.068;2023-03-13T16:31:23;4.30;;;1.40;;
58360;SDS011;44164;44.954;10.068;2023-03-13T16:33:52;6.97;;;1.98;;
58360;SDS011;44164;44.954;10.068;2023-03-13T16:36:20;5.00;;;2.20;;
58360;SDS011;44164;44.954;10.068;2023-03-13T16:38:54;4.60;;;1.65;;
58360;SDS011;44164;44.954;10.068;2023-03-13T16:41:22;10.85;;;2.00;;
58360;SDS011;44164;44.954;10.068;2023-03-13T16:43:49;5.03;;;1.80;;
58360;SDS011;44164;44.954;10.068;2023-03-13T16:46:16;9.73;;;2.03;;
58360;SDS011;44164;44.954;10.068;2023-03-13T16:48:44;6.57;;;2.20;;
58360;SDS011;44164;44.954;10.068;2023-03-13T16:51:21;3.75;;;1.70;;
58360;SDS011;44164;44.954;10.068;2023-03-13T16:53:49;5.38;;;1.92;;
58360;SDS011;44164;44.954;10.068;2023-03-13T16:58:48;3.03;;;1.45;;
58360;SDS011;44164;44.954;10.068;2023-03-13T17:01:15;5.68;;;1.63;;
58360;SDS011;44164;44.954;10.068;2023-03-13T17:03:41;7.35;;;1.52;;
58360;SDS011;44164;44.954;10.068;2023-03-13T17:06:10;5.47;;;1.67;;
58360;SDS011;44164;44.954;10.068;2023-03-13T17:08:39;5.43;;;2.25;;